sensor_id;sensor_type;location;lat;lon;timestamp;temperature;humidity
43227;DHT22;28839;52.404;9.808;2022-11-20T00:01:05;-3.90;99.90
43227;DHT22;28839;52.404;9.808;2022-11-20T00:08:01;-3.90;99.90
43227;DHT22;28839;52.404;9.808;2022-11-20T00:14:55;-3.80;99.90
43227;DHT22;28839;52.404;9.808;2022-11-20T00:21:49;-3.90;99.90
43227;DHT22;28839;52.404;9.808;2022-11-20T00:28:49;-3.80;99.90
43227;DHT22;28839;52.404;9.808;2022-11-20T00:35:43;-3.90;99.90
43227;DHT22;28839;52.404;9.808;2022-11-20T00:42:37;-3.90;99.90
43227;DHT22;28839;52.404;9.808;2022-11-20T00:49:32;-3.80;99.90
43227;DHT22;28839;52.404;9.808;2022-11-20T00:56:26;-3.90;99.90
43227;DHT22;28839;52.404;9.808;2022-11-20T01:03:20;-3.90;99.90
43227;DHT22;28839;52.404;9.808;2022-11-20T01:10:16;-3.90;99.90
43227;DHT22;28839;52.404;9.808;2022-11-20T01:17:10;-3.90;99.90
43227;DHT22;28839;52.404;9.808;2022-11-20T01:24:05;-3.70;99.90
43227;DHT22;28839;52.404;9.808;2022-11-20T01:31:02;-3.60;99.90
43227;DHT22;28839;52.404;9.808;2022-11-20T01:38:03;-3.50;99.90
43227;DHT22;28839;52.404;9.808;2022-11-20T01:44:58;-3.50;99.90
43227;DHT22;28839;52.404;9.808;2022-11-20T01:51:56;-3.50;99.90
43227;DHT22;28839;52.404;9.808;2022-11-20T01:58:52;-3.50;99.90
43227;DHT22;28839;52.404;9.808;2022-11-20T02:05:51;-3.40;99.90
43227;DHT22;28839;52.404;9.808;2022-11-20T02:12:47;-3.40;99.90
43227;DHT22;28839;52.404;9.808;2022-11-20T02:19:58;-3.40;99.90
43227;DHT22;28839;52.404;9.808;2022-11-20T02:26:56;-3.20;99.90
43227;DHT22;28839;52.404;9.808;2022-11-20T02:33:55;-3.20;99.90
43227;DHT22;28839;52.404;9.808;2022-11-20T02:40:49;-3.10;99.90
43227;DHT22;28839;52.404;9.808;2022-11-20T02:47:44;-3.10;99.90
43227;DHT22;28839;52.404;9.808;2022-11-20T02:54:38;-3.00;99.90
43227;DHT22;28839;52.404;9.808;2022-11-20T03:01:32;-3.10;99.90
43227;DHT22;28839;52.404;9.808;2022-11-20T03:08:27;-3.20;99.90
43227;DHT22;28839;52.404;9.808;2022-11-20T03:15:21;-3.10;99.90
43227;DHT22;28839;52.404;9.808;2022-11-20T03:22:15;-3.10;99.90
43227;DHT22;28839;52.404;9.808;2022-11-20T03:29:10;-3.00;99.90
43227;DHT22;28839;52.404;9.808;2022-11-20T03:36:06;-3.00;99.90
43227;DHT22;28839;52.404;9.808;2022-11-20T03:43:00;-2.90;99.90
43227;DHT22;28839;52.404;9.808;2022-11-20T03:49:55;-3.00;99.90
43227;DHT22;28839;52.404;9.808;2022-11-20T03:56:49;-2.80;99.90
43227;DHT22;28839;52.404;9.808;2022-11-20T04:03:43;-2.80;99.90
43227;DHT22;28839;52.404;9.808;2022-11-20T04:10:39;-2.80;99.90
43227;DHT22;28839;52.404;9.808;2022-11-20T04:17:32;-2.80;99.90
43227;DHT22;28839;52.404;9.808;2022-11-20T04:24:26;-2.70;99.90
43227;DHT22;28839;52.404;9.808;2022-11-20T04:31:23;-2.70;99.90
43227;DHT22;28839;52.404;9.808;2022-11-20T04:38:17;-2.60;99.90
43227;DHT22;28839;52.404;9.808;2022-11-20T04:45:11;-2.50;99.90
43227;DHT22;28839;52.404;9.808;2022-11-20T04:52:06;-2.40;99.90
43227;DHT22;28839;52.404;9.808;2022-11-20T04:59:01;-2.30;99.90
43227;DHT22;28839;52.404;9.808;2022-11-20T05:05:55;-2.30;99.90
43227;DHT22;28839;52.404;9.808;2022-11-20T05:12:50;-2.40;99.90
43227;DHT22;28839;52.404;9.808;2022-11-20T05:19:43;-2.30;99.90
43227;DHT22;28839;52.404;9.808;2022-11-20T05:26:37;-2.40;99.90
43227;DHT22;28839;52.404;9.808;2022-11-20T05:33:33;-2.40;99.90
43227;DHT22;28839;52.404;9.808;2022-11-20T05:40:27;-2.40;99.90
43227;DHT22;28839;52.404;9.808;2022-11-20T05:47:21;-2.30;99.90
43227;DHT22;28839;52.404;9.808;2022-11-20T05:54:16;-2.20;99.90
43227;DHT22;28839;52.404;9.808;2022-11-20T06:01:13;-2.10;99.90
43227;DHT22;28839;52.404;9.808;2022-11-20T06:08:07;-2.10;99.90
43227;DHT22;28839;52.404;9.808;2022-11-20T06:15:03;-2.00;99.90
43227;DHT22;28839;52.404;9.808;2022-11-20T06:21:57;-2.10;99.90
43227;DHT22;28839;52.404;9.808;2022-11-20T06:28:51;-2.10;99.90
43227;DHT22;28839;52.404;9.808;2022-11-20T06:35:47;-2.10;99.90
43227;DHT22;28839;52.404;9.808;2022-11-20T06:42:40;-2.00;99.90
43227;DHT22;28839;52.404;9.808;2022-11-20T06:49:34;-2.00;99.90
43227;DHT22;28839;52.404;9.808;2022-11-20T06:56:30;-2.00;99.90
43227;DHT22;28839;52.404;9.808;2022-11-20T07:03:27;-2.00;99.90
43227;DHT22;28839;52.404;9.808;2022-11-20T07:10:21;-2.00;99.90
43227;DHT22;28839;52.404;9.808;2022-11-20T07:17:16;-1.90;99.90
43227;DHT22;28839;52.404;9.808;2022-11-20T07:24:10;-1.90;99.90
43227;DHT22;28839;52.404;9.808;2022-11-20T07:31:04;-2.10;99.90
43227;DHT22;28839;52.404;9.808;2022-11-20T07:38:00;-2.10;99.90
43227;DHT22;28839;52.404;9.808;2022-11-20T07:44:54;-2.00;99.90
43227;DHT22;28839;52.404;9.808;2022-11-20T07:51:50;-1.90;99.90
43227;DHT22;28839;52.404;9.808;2022-11-20T07:58:47;-2.00;99.90
43227;DHT22;28839;52.404;9.808;2022-11-20T08:05:40;-2.00;99.90
43227;DHT22;28839;52.404;9.808;2022-11-20T08:12:34;-1.90;99.90
43227;DHT22;28839;52.404;9.808;2022-11-20T08:19:47;-1.70;99.90
43227;DHT22;28839;52.404;9.808;2022-11-20T08:26:41;-1.70;99.90
43227;DHT22;28839;52.404;9.808;2022-11-20T08:33:36;-1.60;99.90
43227;DHT22;28839;52.404;9.808;2022-11-20T08:40:32;-1.50;99.90
43227;DHT22;28839;52.404;9.808;2022-11-20T08:47:25;-1.60;99.90
43227;DHT22;28839;52.404;9.808;2022-11-20T08:54:19;-1.60;99.90
43227;DHT22;28839;52.404;9.808;2022-11-20T09:01:15;-1.20;99.90
43227;DHT22;28839;52.404;9.808;2022-11-20T09:08:09;-1.10;99.90
43227;DHT22;28839;52.404;9.808;2022-11-20T09:15:04;-1.00;99.90
43227;DHT22;28839;52.404;9.808;2022-11-20T09:21:59;-1.10;99.90
43227;DHT22;28839;52.404;9.808;2022-11-20T09:28:53;-1.30;99.90
43227;DHT22;28839;52.404;9.808;2022-11-20T09:35:48;-1.00;99.90
43227;DHT22;28839;52.404;9.808;2022-11-20T09:42:47;-0.30;99.90
43227;DHT22;28839;52.404;9.808;2022-11-20T09:49:56;-0.10;99.90
43227;DHT22;28839;52.404;9.808;2022-11-20T09:56:56;0.00;99.90
43227;DHT22;28839;52.404;9.808;2022-11-20T10:03:57;0.20;99.90
43227;DHT22;28839;52.404;9.808;2022-11-20T10:10:55;0.30;99.90
43227;DHT22;28839;52.404;9.808;2022-11-20T10:18:13;0.40;99.90
43227;DHT22;28839;52.404;9.808;2022-11-20T10:25:14;0.60;99.90
43227;DHT22;28839;52.404;9.808;2022-11-20T10:32:13;0.70;99.90
43227;DHT22;28839;52.404;9.808;2022-11-20T10:39:16;0.80;99.90
43227;DHT22;28839;52.404;9.808;2022-11-20T10:46:18;0.90;99.90
43227;DHT22;28839;52.404;9.808;2022-11-20T10:53:27;0.90;99.90
43227;DHT22;28839;52.404;9.808;2022-11-20T11:00:24;1.10;99.90
43227;DHT22;28839;52.404;9.808;2022-11-20T11:07:22;1.20;99.90
43227;DHT22;28839;52.404;9.808;2022-11-20T11:14:17;1.20;99.90
43227;DHT22;28839;52.404;9.808;2022-11-20T11:21:11;1.30;99.90
43227;DHT22;28839;52.404;9.808;2022-11-20T11:28:20;1.20;99.90
43227;DHT22;28839;52.404;9.808;2022-11-20T11:35:25;1.40;99.90
43227;DHT22;28839;52.404;9.808;2022-11-20T11:42:20;1.40;99.90
43227;DHT22;28839;52.404;9.808;2022-11-20T11:49:18;1.20;99.90
43227;DHT22;28839;52.404;9.808;2022-11-20T11:56:13;1.30;99.90
43227;DHT22;28839;52.404;9.808;2022-11-20T12:03:13;1.10;99.90
43227;DHT22;28839;52.404;9.808;2022-11-20T12:10:17;1.10;99.90
43227;DHT22;28839;52.404;9.808;2022-11-20T12:17:13;1.10;99.90
43227;DHT22;28839;52.404;9.808;2022-11-20T12:24:23;1.20;99.90
43227;DHT22;28839;52.404;9.808;2022-11-20T12:38:49;1.20;99.90
43227;DHT22;28839;52.404;9.808;2022-11-20T12:46:06;1.30;99.90
43227;DHT22;28839;52.404;9.808;2022-11-20T12:53:10;1.30;99.90
43227;DHT22;28839;52.404;9.808;2022-11-20T13:00:11;1.40;99.90
43227;DHT22;28839;52.404;9.808;2022-11-20T13:07:10;1.40;99.90
43227;DHT22;28839;52.404;9.808;2022-11-20T13:14:14;1.50;99.90
43227;DHT22;28839;52.404;9.808;2022-11-20T13:21:18;1.40;99.90
43227;DHT22;28839;52.404;9.808;2022-11-20T13:28:29;1.40;99.90
43227;DHT22;28839;52.404;9.808;2022-11-20T13:35:27;1.30;99.90
43227;DHT22;28839;52.404;9.808;2022-11-20T13:42:27;1.40;99.90
43227;DHT22;28839;52.404;9.808;2022-11-20T13:49:26;1.50;99.90
43227;DHT22;28839;52.404;9.808;2022-11-20T13:56:36;1.50;99.90
43227;DHT22;28839;52.404;9.808;2022-11-20T14:03:33;1.40;99.90
43227;DHT22;28839;52.404;9.808;2022-11-20T14:10:27;1.30;99.90
43227;DHT22;28839;52.404;9.808;2022-11-20T14:17:29;1.30;99.90
43227;DHT22;28839;52.404;9.808;2022-11-20T14:24:24;1.30;99.90
43227;DHT22;28839;52.404;9.808;2022-11-20T14:31:23;1.20;99.90
43227;DHT22;28839;52.404;9.808;2022-11-20T14:38:22;1.10;99.90
43227;DHT22;28839;52.404;9.808;2022-11-20T14:45:17;1.10;99.90
43227;DHT22;28839;52.404;9.808;2022-11-20T14:52:14;1.00;99.90
43227;DHT22;28839;52.404;9.808;2022-11-20T14:59:10;0.80;99.90
43227;DHT22;28839;52.404;9.808;2022-11-20T15:06:04;0.60;99.90
43227;DHT22;28839;52.404;9.808;2022-11-20T15:13:01;0.50;99.90
43227;DHT22;28839;52.404;9.808;2022-11-20T15:19:57;0.60;99.90
43227;DHT22;28839;52.404;9.808;2022-11-20T15:26:52;0.50;99.90
43227;DHT22;28839;52.404;9.808;2022-11-20T15:33:46;0.40;99.90
43227;DHT22;28839;52.404;9.808;2022-11-20T15:40:42;0.30;99.90
43227;DHT22;28839;52.404;9.808;2022-11-20T15:47:36;0.30;99.90
43227;DHT22;28839;52.404;9.808;2022-11-20T15:54:30;0.40;99.90
43227;DHT22;28839;52.404;9.808;2022-11-20T16:01:25;0.20;99.90
43227;DHT22;28839;52.404;9.808;2022-11-20T16:08:19;0.00;99.90
43227;DHT22;28839;52.404;9.808;2022-11-20T16:15:12;0.00;99.90
43227;DHT22;28839;52.404;9.808;2022-11-20T16:22:25;-0.20;99.90
43227;DHT22;28839;52.404;9.808;2022-11-20T16:29:19;-0.40;99.90
43227;DHT22;28839;52.404;9.808;2022-11-20T16:36:14;-0.60;99.90
43227;DHT22;28839;52.404;9.808;2022-11-20T16:43:18;-0.60;99.90
43227;DHT22;28839;52.404;9.808;2022-11-20T16:50:12;-0.80;99.90
43227;DHT22;28839;52.404;9.808;2022-11-20T16:57:06;-0.90;99.90
43227;DHT22;28839;52.404;9.808;2022-11-20T17:04:03;-0.80;99.90
43227;DHT22;28839;52.404;9.808;2022-11-20T17:11:04;-0.90;99.90
43227;DHT22;28839;52.404;9.808;2022-11-20T17:17:58;-1.00;99.90
43227;DHT22;28839;52.404;9.808;2022-11-20T17:24:55;-1.00;99.90
43227;DHT22;28839;52.404;9.808;2022-11-20T17:31:49;-1.20;99.90
43227;DHT22;28839;52.404;9.808;2022-11-20T17:38:43;-1.20;99.90
43227;DHT22;28839;52.404;9.808;2022-11-20T17:45:39;-1.30;99.90
43227;DHT22;28839;52.404;9.808;2022-11-20T17:52:33;-1.30;99.90
43227;DHT22;28839;52.404;9.808;2022-11-20T17:59:27;-1.20;99.90
43227;DHT22;28839;52.404;9.808;2022-11-20T18:06:23;-1.20;99.90
43227;DHT22;28839;52.404;9.808;2022-11-20T18:13:17;-1.20;99.90
43227;DHT22;28839;52.404;9.808;2022-11-20T18:20:11;-1.10;99.90
43227;DHT22;28839;52.404;9.808;2022-11-20T18:27:11;-1.10;99.90
43227;DHT22;28839;52.404;9.808;2022-11-20T18:34:06;-1.10;99.90
43227;DHT22;28839;52.404;9.808;2022-11-20T18:41:03;-1.10;99.90
43227;DHT22;28839;52.404;9.808;2022-11-20T18:47:58;-0.90;99.90
43227;DHT22;28839;52.404;9.808;2022-11-20T18:54:52;-0.90;99.90
43227;DHT22;28839;52.404;9.808;2022-11-20T19:01:46;-0.80;99.90
43227;DHT22;28839;52.404;9.808;2022-11-20T19:08:41;-0.90;99.90
43227;DHT22;28839;52.404;9.808;2022-11-20T19:15:40;-0.80;99.90
43227;DHT22;28839;52.404;9.808;2022-11-20T19:22:34;-0.70;99.90
43227;DHT22;28839;52.404;9.808;2022-11-20T19:29:29;-0.60;99.90
43227;DHT22;28839;52.404;9.808;2022-11-20T19:36:24;-0.60;99.90
43227;DHT22;28839;52.404;9.808;2022-11-20T19:43:19;-0.70;99.90
43227;DHT22;28839;52.404;9.808;2022-11-20T19:50:14;-0.80;99.90
43227;DHT22;28839;52.404;9.808;2022-11-20T19:57:08;-0.60;99.90
43227;DHT22;28839;52.404;9.808;2022-11-20T20:04:02;-0.70;99.90
43227;DHT22;28839;52.404;9.808;2022-11-20T20:10:58;-0.60;99.90
43227;DHT22;28839;52.404;9.808;2022-11-20T20:17:52;-0.50;99.90
43227;DHT22;28839;52.404;9.808;2022-11-20T20:24:46;-0.40;99.90
43227;DHT22;28839;52.404;9.808;2022-11-20T20:31:42;-0.50;99.90
43227;DHT22;28839;52.404;9.808;2022-11-20T20:38:36;-0.50;99.90
43227;DHT22;28839;52.404;9.808;2022-11-20T20:45:30;-0.40;99.90
43227;DHT22;28839;52.404;9.808;2022-11-20T20:52:25;-0.60;99.90
43227;DHT22;28839;52.404;9.808;2022-11-20T20:59:19;-0.60;99.90
43227;DHT22;28839;52.404;9.808;2022-11-20T21:06:13;-0.60;99.90
43227;DHT22;28839;52.404;9.808;2022-11-20T21:13:08;-0.60;99.90
43227;DHT22;28839;52.404;9.808;2022-11-20T21:20:02;-0.70;99.90
43227;DHT22;28839;52.404;9.808;2022-11-20T21:27:17;-0.60;99.90
43227;DHT22;28839;52.404;9.808;2022-11-20T21:34:12;-0.50;99.90
43227;DHT22;28839;52.404;9.808;2022-11-20T21:41:09;-0.60;99.90
43227;DHT22;28839;52.404;9.808;2022-11-20T21:48:04;-0.60;99.90
43227;DHT22;28839;52.404;9.808;2022-11-20T21:55:00;-0.50;99.90
43227;DHT22;28839;52.404;9.808;2022-11-20T22:01:54;-0.50;99.90
43227;DHT22;28839;52.404;9.808;2022-11-20T22:08:51;-0.60;99.90
43227;DHT22;28839;52.404;9.808;2022-11-20T22:16:00;-0.60;99.90
43227;DHT22;28839;52.404;9.808;2022-11-20T22:22:53;-0.50;99.90
43227;DHT22;28839;52.404;9.808;2022-11-20T22:29:47;-0.40;99.90
43227;DHT22;28839;52.404;9.808;2022-11-20T22:36:42;-0.40;99.90
43227;DHT22;28839;52.404;9.808;2022-11-20T22:43:38;-0.40;99.90
43227;DHT22;28839;52.404;9.808;2022-11-20T22:50:32;-0.30;99.90
43227;DHT22;28839;52.404;9.808;2022-11-20T22:57:27;-0.20;99.90
43227;DHT22;28839;52.404;9.808;2022-11-20T23:04:21;-0.20;99.90
43227;DHT22;28839;52.404;9.808;2022-11-20T23:11:18;-0.20;99.90
43227;DHT22;28839;52.404;9.808;2022-11-20T23:18:14;-0.20;99.90
43227;DHT22;28839;52.404;9.808;2022-11-20T23:25:08;-0.20;99.90
43227;DHT22;28839;52.404;9.808;2022-11-20T23:32:02;-0.20;99.90
43227;DHT22;28839;52.404;9.808;2022-11-20T23:38:57;-0.30;99.90
43227;DHT22;28839;52.404;9.808;2022-11-20T23:45:52;-0.20;99.90
43227;DHT22;28839;52.404;9.808;2022-11-20T23:52:46;-0.20;99.90
43227;DHT22;28839;52.404;9.808;2022-11-20T23:59:42;-0.30;99.90
